sensor_id;sensor_type;location;lat;lon;timestamp;temperature;humidity
15617;DHT22;7908;51.688;7.130;2022-12-18T00:00:40;-9.30;99.90
15617;DHT22;7908;51.688;7.130;2022-12-18T00:03:09;-9.30;99.90
15617;DHT22;7908;51.688;7.130;2022-12-18T00:05:37;-9.40;99.90
15617;DHT22;7908;51.688;7.130;2022-12-18T00:08:15;-9.50;99.90
15617;DHT22;7908;51.688;7.130;2022-12-18T00:10:45;-9.50;99.90
15617;DHT22;7908;51.688;7.130;2022-12-18T00:13:15;-9.50;99.90
15617;DHT22;7908;51.688;7.130;2022-12-18T00:15:44;-9.50;99.90
15617;DHT22;7908;51.688;7.130;2022-12-18T00:18:13;-9.50;99.90
15617;DHT22;7908;51.688;7.130;2022-12-18T00:20:46;-9.50;99.90
15617;DHT22;7908;51.688;7.130;2022-12-18T00:23:15;-9.60;99.90
15617;DHT22;7908;51.688;7.130;2022-12-18T00:25:44;-9.60;99.90
15617;DHT22;7908;51.688;7.130;2022-12-18T00:28:12;-9.60;99.90
15617;DHT22;7908;51.688;7.130;2022-12-18T00:30:43;-9.70;99.90
15617;DHT22;7908;51.688;7.130;2022-12-18T00:33:18;-9.70;99.90
15617;DHT22;7908;51.688;7.130;2022-12-18T00:35:47;-9.70;99.90
15617;DHT22;7908;51.688;7.130;2022-12-18T00:38:15;-9.70;99.90
15617;DHT22;7908;51.688;7.130;2022-12-18T00:40:44;-9.70;99.90
15617;DHT22;7908;51.688;7.130;2022-12-18T00:43:12;-9.70;99.90
15617;DHT22;7908;51.688;7.130;2022-12-18T00:45:42;-9.70;99.90
15617;DHT22;7908;51.688;7.130;2022-12-18T00:48:11;-9.80;99.90
15617;DHT22;7908;51.688;7.130;2022-12-18T00:50:40;-9.90;99.90
15617;DHT22;7908;51.688;7.130;2022-12-18T00:53:11;-9.90;99.90
15617;DHT22;7908;51.688;7.130;2022-12-18T00:55:41;-10.00;99.90
15617;DHT22;7908;51.688;7.130;2022-12-18T00:58:10;-9.90;99.90
15617;DHT22;7908;51.688;7.130;2022-12-18T01:00:39;-10.00;99.90
15617;DHT22;7908;51.688;7.130;2022-12-18T01:03:10;-9.90;99.90
15617;DHT22;7908;51.688;7.130;2022-12-18T01:05:41;-9.90;99.90
15617;DHT22;7908;51.688;7.130;2022-12-18T01:08:10;-10.00;99.90
15617;DHT22;7908;51.688;7.130;2022-12-18T01:10:40;-10.00;99.90
15617;DHT22;7908;51.688;7.130;2022-12-18T01:13:09;-10.00;99.90
15617;DHT22;7908;51.688;7.130;2022-12-18T01:15:37;-10.00;99.90
15617;DHT22;7908;51.688;7.130;2022-12-18T01:18:06;-10.00;99.90
15617;DHT22;7908;51.688;7.130;2022-12-18T01:20:36;-10.00;99.90
15617;DHT22;7908;51.688;7.130;2022-12-18T01:23:06;-9.90;99.90
15617;DHT22;7908;51.688;7.130;2022-12-18T01:25:36;-9.90;99.90
15617;DHT22;7908;51.688;7.130;2022-12-18T01:28:04;-9.90;99.90
15617;DHT22;7908;51.688;7.130;2022-12-18T01:30:33;-9.90;99.90
15617;DHT22;7908;51.688;7.130;2022-12-18T01:33:01;-9.90;99.90
15617;DHT22;7908;51.688;7.130;2022-12-18T01:35:32;-9.90;99.90
15617;DHT22;7908;51.688;7.130;2022-12-18T01:38:05;-10.00;99.90
15617;DHT22;7908;51.688;7.130;2022-12-18T01:40:34;-10.00;99.90
15617;DHT22;7908;51.688;7.130;2022-12-18T01:43:02;-10.20;99.90
15617;DHT22;7908;51.688;7.130;2022-12-18T01:45:31;-10.20;99.90
15617;DHT22;7908;51.688;7.130;2022-12-18T01:48:04;-10.20;99.90
15617;DHT22;7908;51.688;7.130;2022-12-18T01:50:36;-10.10;99.90
15617;DHT22;7908;51.688;7.130;2022-12-18T01:53:13;-9.50;99.90
15617;DHT22;7908;51.688;7.130;2022-12-18T01:55:49;-10.20;99.90
15617;DHT22;7908;51.688;7.130;2022-12-18T01:58:20;-10.20;99.90
15617;DHT22;7908;51.688;7.130;2022-12-18T02:00:50;-10.20;99.90
15617;DHT22;7908;51.688;7.130;2022-12-18T02:03:18;-10.30;99.90
15617;DHT22;7908;51.688;7.130;2022-12-18T02:05:52;-10.30;99.90
15617;DHT22;7908;51.688;7.130;2022-12-18T02:08:32;-10.30;99.90
15617;DHT22;7908;51.688;7.130;2022-12-18T02:11:06;-10.30;99.90
15617;DHT22;7908;51.688;7.130;2022-12-18T02:13:42;-10.30;99.90
15617;DHT22;7908;51.688;7.130;2022-12-18T02:16:19;-10.30;99.90
15617;DHT22;7908;51.688;7.130;2022-12-18T02:18:56;-10.30;99.90
15617;DHT22;7908;51.688;7.130;2022-12-18T02:21:32;-10.30;99.90
15617;DHT22;7908;51.688;7.130;2022-12-18T02:24:18;-10.20;99.90
15617;DHT22;7908;51.688;7.130;2022-12-18T02:26:55;-10.20;99.90
15617;DHT22;7908;51.688;7.130;2022-12-18T02:29:27;-10.20;99.90
15617;DHT22;7908;51.688;7.130;2022-12-18T02:32:02;-10.20;99.90
15617;DHT22;7908;51.688;7.130;2022-12-18T02:34:36;-10.30;99.90
15617;DHT22;7908;51.688;7.130;2022-12-18T02:37:09;-10.30;99.90
15617;DHT22;7908;51.688;7.130;2022-12-18T02:39:41;-10.30;99.90
15617;DHT22;7908;51.688;7.130;2022-12-18T02:42:12;-10.40;99.90
15617;DHT22;7908;51.688;7.130;2022-12-18T02:44:45;-10.40;99.90
15617;DHT22;7908;51.688;7.130;2022-12-18T02:47:15;-10.40;99.90
15617;DHT22;7908;51.688;7.130;2022-12-18T02:49:49;-10.40;99.90
15617;DHT22;7908;51.688;7.130;2022-12-18T02:52:38;-10.40;99.90
15617;DHT22;7908;51.688;7.130;2022-12-18T02:55:16;-10.40;99.90
15617;DHT22;7908;51.688;7.130;2022-12-18T02:57:52;-10.50;99.90
15617;DHT22;7908;51.688;7.130;2022-12-18T03:00:26;-10.50;99.90
15617;DHT22;7908;51.688;7.130;2022-12-18T03:03:02;-10.40;99.90
15617;DHT22;7908;51.688;7.130;2022-12-18T03:05:35;-10.50;99.90
15617;DHT22;7908;51.688;7.130;2022-12-18T03:08:08;-10.50;99.90
15617;DHT22;7908;51.688;7.130;2022-12-18T03:10:42;-10.50;99.90
15617;DHT22;7908;51.688;7.130;2022-12-18T03:13:18;-10.50;99.90
15617;DHT22;7908;51.688;7.130;2022-12-18T03:15:50;-10.40;99.90
15617;DHT22;7908;51.688;7.130;2022-12-18T03:18:24;-10.40;99.90
15617;DHT22;7908;51.688;7.130;2022-12-18T03:20:56;-10.40;99.90
15617;DHT22;7908;51.688;7.130;2022-12-18T03:23:29;-10.50;99.90
15617;DHT22;7908;51.688;7.130;2022-12-18T03:26:01;-10.50;99.90
15617;DHT22;7908;51.688;7.130;2022-12-18T03:28:38;-10.50;99.90
15617;DHT22;7908;51.688;7.130;2022-12-18T03:31:10;-10.50;99.90
15617;DHT22;7908;51.688;7.130;2022-12-18T03:33:42;-10.50;99.90
15617;DHT22;7908;51.688;7.130;2022-12-18T03:36:12;-10.40;99.90
15617;DHT22;7908;51.688;7.130;2022-12-18T03:38:41;-10.50;99.90
15617;DHT22;7908;51.688;7.130;2022-12-18T03:41:17;-10.50;99.90
15617;DHT22;7908;51.688;7.130;2022-12-18T03:43:50;-10.50;99.90
15617;DHT22;7908;51.688;7.130;2022-12-18T03:46:26;-10.50;99.90
15617;DHT22;7908;51.688;7.130;2022-12-18T03:49:01;-10.40;99.90
15617;DHT22;7908;51.688;7.130;2022-12-18T03:51:39;-10.50;99.90
15617;DHT22;7908;51.688;7.130;2022-12-18T03:54:11;-10.40;99.90
15617;DHT22;7908;51.688;7.130;2022-12-18T03:56:44;-10.50;99.90
15617;DHT22;7908;51.688;7.130;2022-12-18T03:59:16;-10.50;99.90
15617;DHT22;7908;51.688;7.130;2022-12-18T04:01:49;-10.60;99.90
15617;DHT22;7908;51.688;7.130;2022-12-18T04:04:19;-10.60;99.90
15617;DHT22;7908;51.688;7.130;2022-12-18T04:06:50;-10.60;99.90
15617;DHT22;7908;51.688;7.130;2022-12-18T04:09:19;-10.60;99.90
15617;DHT22;7908;51.688;7.130;2022-12-18T04:11:48;-10.60;99.90
15617;DHT22;7908;51.688;7.130;2022-12-18T04:14:18;-10.60;99.90
15617;DHT22;7908;51.688;7.130;2022-12-18T04:16:47;-10.60;99.90
15617;DHT22;7908;51.688;7.130;2022-12-18T04:19:15;-10.70;99.90
15617;DHT22;7908;51.688;7.130;2022-12-18T04:21:44;-10.70;99.90
15617;DHT22;7908;51.688;7.130;2022-12-18T04:24:12;-10.70;99.90
15617;DHT22;7908;51.688;7.130;2022-12-18T04:26:41;-10.70;99.90
15617;DHT22;7908;51.688;7.130;2022-12-18T04:29:09;-10.70;99.90
15617;DHT22;7908;51.688;7.130;2022-12-18T04:31:39;-10.70;99.90
15617;DHT22;7908;51.688;7.130;2022-12-18T04:34:08;-10.80;99.90
15617;DHT22;7908;51.688;7.130;2022-12-18T04:36:36;-10.80;99.90
15617;DHT22;7908;51.688;7.130;2022-12-18T04:39:04;-10.80;99.90
15617;DHT22;7908;51.688;7.130;2022-12-18T04:41:33;-10.70;99.90
15617;DHT22;7908;51.688;7.130;2022-12-18T04:44:01;-10.70;99.90
15617;DHT22;7908;51.688;7.130;2022-12-18T04:46:30;-10.70;99.90
15617;DHT22;7908;51.688;7.130;2022-12-18T04:49:00;-10.80;99.90
15617;DHT22;7908;51.688;7.130;2022-12-18T04:51:29;-10.80;99.90
15617;DHT22;7908;51.688;7.130;2022-12-18T04:53:57;-10.80;99.90
15617;DHT22;7908;51.688;7.130;2022-12-18T04:56:26;-10.80;99.90
15617;DHT22;7908;51.688;7.130;2022-12-18T04:58:54;-10.80;99.90
15617;DHT22;7908;51.688;7.130;2022-12-18T05:01:23;-10.80;99.90
15617;DHT22;7908;51.688;7.130;2022-12-18T05:04:01;-10.80;99.90
15617;DHT22;7908;51.688;7.130;2022-12-18T05:06:30;-10.80;99.90
15617;DHT22;7908;51.688;7.130;2022-12-18T05:08:58;-10.80;99.90
15617;DHT22;7908;51.688;7.130;2022-12-18T05:11:27;-10.80;99.90
15617;DHT22;7908;51.688;7.130;2022-12-18T05:13:55;-10.80;99.90
15617;DHT22;7908;51.688;7.130;2022-12-18T05:16:24;-10.90;99.90
15617;DHT22;7908;51.688;7.130;2022-12-18T05:18:53;-10.90;99.90
15617;DHT22;7908;51.688;7.130;2022-12-18T05:21:22;-10.90;99.90
15617;DHT22;7908;51.688;7.130;2022-12-18T05:23:51;-10.90;99.90
15617;DHT22;7908;51.688;7.130;2022-12-18T05:26:20;-10.90;99.90
15617;DHT22;7908;51.688;7.130;2022-12-18T05:28:48;-10.90;99.90
15617;DHT22;7908;51.688;7.130;2022-12-18T05:31:17;-10.90;99.90
15617;DHT22;7908;51.688;7.130;2022-12-18T05:33:45;-11.00;99.90
15617;DHT22;7908;51.688;7.130;2022-12-18T05:36:17;-11.00;99.90
15617;DHT22;7908;51.688;7.130;2022-12-18T05:38:47;-11.10;99.90
15617;DHT22;7908;51.688;7.130;2022-12-18T05:41:16;-11.10;99.90
15617;DHT22;7908;51.688;7.130;2022-12-18T05:43:44;-11.10;99.90
15617;DHT22;7908;51.688;7.130;2022-12-18T05:46:14;-11.10;99.90
15617;DHT22;7908;51.688;7.130;2022-12-18T05:48:44;-11.10;99.90
15617;DHT22;7908;51.688;7.130;2022-12-18T05:51:15;-11.00;99.90
15617;DHT22;7908;51.688;7.130;2022-12-18T05:53:45;-10.90;99.90
15617;DHT22;7908;51.688;7.130;2022-12-18T05:56:16;-10.90;99.90
15617;DHT22;7908;51.688;7.130;2022-12-18T05:58:46;-11.00;99.90
15617;DHT22;7908;51.688;7.130;2022-12-18T06:01:16;-11.00;99.90
15617;DHT22;7908;51.688;7.130;2022-12-18T06:03:45;-11.00;99.90
15617;DHT22;7908;51.688;7.130;2022-12-18T06:06:15;-10.90;99.90
15617;DHT22;7908;51.688;7.130;2022-12-18T06:08:44;-10.90;99.90
15617;DHT22;7908;51.688;7.130;2022-12-18T06:11:16;-10.90;99.90
15617;DHT22;7908;51.688;7.130;2022-12-18T06:13:44;-10.90;99.90
15617;DHT22;7908;51.688;7.130;2022-12-18T06:16:20;-10.90;99.90
15617;DHT22;7908;51.688;7.130;2022-12-18T06:18:49;-10.80;99.90
15617;DHT22;7908;51.688;7.130;2022-12-18T06:21:18;-10.80;99.90
15617;DHT22;7908;51.688;7.130;2022-12-18T06:23:47;-10.80;99.90
15617;DHT22;7908;51.688;7.130;2022-12-18T06:26:17;-10.80;99.90
15617;DHT22;7908;51.688;7.130;2022-12-18T06:28:53;-10.80;99.90
15617;DHT22;7908;51.688;7.130;2022-12-18T06:31:22;-10.80;99.90
15617;DHT22;7908;51.688;7.130;2022-12-18T06:33:51;-10.80;99.90
15617;DHT22;7908;51.688;7.130;2022-12-18T06:36:19;-10.80;99.90
15617;DHT22;7908;51.688;7.130;2022-12-18T06:38:48;-10.80;99.90
15617;DHT22;7908;51.688;7.130;2022-12-18T06:41:19;-10.80;99.90
15617;DHT22;7908;51.688;7.130;2022-12-18T06:43:48;-10.80;99.90
15617;DHT22;7908;51.688;7.130;2022-12-18T06:46:23;-10.80;99.90
15617;DHT22;7908;51.688;7.130;2022-12-18T06:48:51;-10.90;99.90
15617;DHT22;7908;51.688;7.130;2022-12-18T06:51:22;-10.90;99.90
15617;DHT22;7908;51.688;7.130;2022-12-18T06:53:51;-10.90;99.90
15617;DHT22;7908;51.688;7.130;2022-12-18T06:56:21;-11.00;99.90
15617;DHT22;7908;51.688;7.130;2022-12-18T06:58:51;-11.00;99.90
15617;DHT22;7908;51.688;7.130;2022-12-18T07:01:19;-11.00;99.90
15617;DHT22;7908;51.688;7.130;2022-12-18T07:03:52;-11.10;99.90
15617;DHT22;7908;51.688;7.130;2022-12-18T07:06:22;-11.10;99.90
15617;DHT22;7908;51.688;7.130;2022-12-18T07:08:53;-11.10;99.90
15617;DHT22;7908;51.688;7.130;2022-12-18T07:11:23;-11.10;99.90
15617;DHT22;7908;51.688;7.130;2022-12-18T07:13:52;-11.20;99.90
15617;DHT22;7908;51.688;7.130;2022-12-18T07:16:21;-11.20;99.90
15617;DHT22;7908;51.688;7.130;2022-12-18T07:18:52;-11.20;99.90
15617;DHT22;7908;51.688;7.130;2022-12-18T07:21:23;-11.30;99.90
15617;DHT22;7908;51.688;7.130;2022-12-18T07:23:52;-11.30;99.90
15617;DHT22;7908;51.688;7.130;2022-12-18T07:26:22;-11.20;99.90
15617;DHT22;7908;51.688;7.130;2022-12-18T07:28:55;-11.30;99.90
15617;DHT22;7908;51.688;7.130;2022-12-18T07:31:27;-11.20;99.90
15617;DHT22;7908;51.688;7.130;2022-12-18T07:33:56;-11.20;99.90
15617;DHT22;7908;51.688;7.130;2022-12-18T07:36:25;-11.20;99.90
15617;DHT22;7908;51.688;7.130;2022-12-18T07:38:54;-11.10;99.90
15617;DHT22;7908;51.688;7.130;2022-12-18T07:41:24;-11.10;99.90
15617;DHT22;7908;51.688;7.130;2022-12-18T07:43:53;-11.10;99.90
15617;DHT22;7908;51.688;7.130;2022-12-18T07:46:22;-10.90;99.90
15617;DHT22;7908;51.688;7.130;2022-12-18T07:48:50;-10.90;99.90
15617;DHT22;7908;51.688;7.130;2022-12-18T07:51:19;-10.90;99.90
15617;DHT22;7908;51.688;7.130;2022-12-18T07:53:47;-10.80;99.90
15617;DHT22;7908;51.688;7.130;2022-12-18T07:56:19;-10.70;99.90
15617;DHT22;7908;51.688;7.130;2022-12-18T07:58:59;-10.70;99.90
15617;DHT22;7908;51.688;7.130;2022-12-18T08:01:27;-10.60;99.90
15617;DHT22;7908;51.688;7.130;2022-12-18T08:03:57;-10.50;99.90
15617;DHT22;7908;51.688;7.130;2022-12-18T08:06:31;-10.50;99.90
15617;DHT22;7908;51.688;7.130;2022-12-18T08:09:00;-10.50;99.90
15617;DHT22;7908;51.688;7.130;2022-12-18T08:11:29;-10.40;99.90
15617;DHT22;7908;51.688;7.130;2022-12-18T08:13:59;-10.30;99.90
15617;DHT22;7908;51.688;7.130;2022-12-18T08:16:30;-10.10;99.90
15617;DHT22;7908;51.688;7.130;2022-12-18T08:18:59;-10.10;99.90
15617;DHT22;7908;51.688;7.130;2022-12-18T08:21:29;-10.00;99.90
15617;DHT22;7908;51.688;7.130;2022-12-18T08:23:59;-9.90;99.90
15617;DHT22;7908;51.688;7.130;2022-12-18T08:26:30;-9.80;99.90
15617;DHT22;7908;51.688;7.130;2022-12-18T08:29:00;-9.80;99.90
15617;DHT22;7908;51.688;7.130;2022-12-18T08:31:30;-9.70;99.90
15617;DHT22;7908;51.688;7.130;2022-12-18T08:34:00;-9.70;99.90
15617;DHT22;7908;51.688;7.130;2022-12-18T08:36:28;-9.60;99.90
15617;DHT22;7908;51.688;7.130;2022-12-18T08:38:57;-9.60;99.90
15617;DHT22;7908;51.688;7.130;2022-12-18T08:41:26;-9.50;99.90
15617;DHT22;7908;51.688;7.130;2022-12-18T08:43:55;-9.50;99.90
15617;DHT22;7908;51.688;7.130;2022-12-18T08:46:43;-9.40;99.90
15617;DHT22;7908;51.688;7.130;2022-12-18T08:49:12;-9.30;99.90
15617;DHT22;7908;51.688;7.130;2022-12-18T08:51:41;-9.20;99.90
15617;DHT22;7908;51.688;7.130;2022-12-18T08:54:11;-9.20;99.90
15617;DHT22;7908;51.688;7.130;2022-12-18T08:56:40;-9.00;99.90
15617;DHT22;7908;51.688;7.130;2022-12-18T08:59:09;-8.90;99.90
15617;DHT22;7908;51.688;7.130;2022-12-18T09:01:47;-8.90;99.90
15617;DHT22;7908;51.688;7.130;2022-12-18T09:04:16;-8.80;99.90
15617;DHT22;7908;51.688;7.130;2022-12-18T09:06:45;-8.70;99.90
15617;DHT22;7908;51.688;7.130;2022-12-18T09:09:14;-8.60;99.90
15617;DHT22;7908;51.688;7.130;2022-12-18T09:11:43;-8.50;99.90
15617;DHT22;7908;51.688;7.130;2022-12-18T09:14:11;-8.40;99.90
15617;DHT22;7908;51.688;7.130;2022-12-18T09:16:42;-8.30;99.90
15617;DHT22;7908;51.688;7.130;2022-12-18T09:19:13;-8.20;99.90
15617;DHT22;7908;51.688;7.130;2022-12-18T09:21:42;-8.10;99.90
15617;DHT22;7908;51.688;7.130;2022-12-18T09:24:15;-8.00;99.90
15617;DHT22;7908;51.688;7.130;2022-12-18T09:26:44;-7.90;99.90
15617;DHT22;7908;51.688;7.130;2022-12-18T09:29:14;-7.80;99.90
15617;DHT22;7908;51.688;7.130;2022-12-18T09:31:45;-7.70;99.90
15617;DHT22;7908;51.688;7.130;2022-12-18T09:34:18;-7.60;99.90
15617;DHT22;7908;51.688;7.130;2022-12-18T09:36:48;-7.60;99.90
15617;DHT22;7908;51.688;7.130;2022-12-18T09:39:22;-7.50;99.90
15617;DHT22;7908;51.688;7.130;2022-12-18T09:41:52;-7.40;99.90
15617;DHT22;7908;51.688;7.130;2022-12-18T09:44:24;-7.30;99.90
15617;DHT22;7908;51.688;7.130;2022-12-18T09:47:03;-7.20;99.90
15617;DHT22;7908;51.688;7.130;2022-12-18T09:49:39;-7.20;99.90
15617;DHT22;7908;51.688;7.130;2022-12-18T09:52:14;-7.10;99.90
15617;DHT22;7908;51.688;7.130;2022-12-18T09:54:48;-7.00;99.90
15617;DHT22;7908;51.688;7.130;2022-12-18T09:57:22;-6.90;99.90
15617;DHT22;7908;51.688;7.130;2022-12-18T09:59:55;-6.80;99.90
15617;DHT22;7908;51.688;7.130;2022-12-18T10:02:26;-6.60;99.90
15617;DHT22;7908;51.688;7.130;2022-12-18T10:05:10;-6.50;99.90
15617;DHT22;7908;51.688;7.130;2022-12-18T10:07:49;-6.30;99.90
15617;DHT22;7908;51.688;7.130;2022-12-18T10:10:35;-6.20;99.90
15617;DHT22;7908;51.688;7.130;2022-12-18T10:13:13;-6.00;99.90
15617;DHT22;7908;51.688;7.130;2022-12-18T10:16:00;-5.90;99.90
15617;DHT22;7908;51.688;7.130;2022-12-18T10:18:59;-5.70;99.90
15617;DHT22;7908;51.688;7.130;2022-12-18T10:21:36;-5.60;99.90
15617;DHT22;7908;51.688;7.130;2022-12-18T10:24:16;-5.50;99.90
15617;DHT22;7908;51.688;7.130;2022-12-18T10:26:47;-5.30;99.90
15617;DHT22;7908;51.688;7.130;2022-12-18T10:29:16;-5.20;99.90
15617;DHT22;7908;51.688;7.130;2022-12-18T10:31:45;-5.10;99.90
15617;DHT22;7908;51.688;7.130;2022-12-18T10:34:17;-5.00;99.90
15617;DHT22;7908;51.688;7.130;2022-12-18T10:36:48;-5.00;99.90
15617;DHT22;7908;51.688;7.130;2022-12-18T10:39:21;-4.90;99.90
15617;DHT22;7908;51.688;7.130;2022-12-18T10:42:10;-4.80;99.90
15617;DHT22;7908;51.688;7.130;2022-12-18T10:44:40;-4.70;99.90
15617;DHT22;7908;51.688;7.130;2022-12-18T10:47:14;-4.50;99.90
15617;DHT22;7908;51.688;7.130;2022-12-18T10:49:49;-4.50;99.90
15617;DHT22;7908;51.688;7.130;2022-12-18T10:52:21;-4.40;99.90
15617;DHT22;7908;51.688;7.130;2022-12-18T10:54:52;-4.30;99.90
15617;DHT22;7908;51.688;7.130;2022-12-18T10:57:34;-4.20;99.90
15617;DHT22;7908;51.688;7.130;2022-12-18T11:00:26;-4.10;99.90
15617;DHT22;7908;51.688;7.130;2022-12-18T11:03:29;-4.00;99.90
15617;DHT22;7908;51.688;7.130;2022-12-18T11:06:03;-4.00;99.90
15617;DHT22;7908;51.688;7.130;2022-12-18T11:08:34;-3.90;99.90
15617;DHT22;7908;51.688;7.130;2022-12-18T11:11:09;-3.80;99.90
15617;DHT22;7908;51.688;7.130;2022-12-18T11:13:54;-3.70;99.90
15617;DHT22;7908;51.688;7.130;2022-12-18T11:16:29;-3.60;99.90
15617;DHT22;7908;51.688;7.130;2022-12-18T11:19:25;-3.50;99.90
15617;DHT22;7908;51.688;7.130;2022-12-18T11:21:55;-3.40;99.90
15617;DHT22;7908;51.688;7.130;2022-12-18T11:24:30;-3.30;99.90
15617;DHT22;7908;51.688;7.130;2022-12-18T11:27:02;-3.20;99.90
15617;DHT22;7908;51.688;7.130;2022-12-18T11:29:34;-3.10;99.90
15617;DHT22;7908;51.688;7.130;2022-12-18T11:32:28;-3.00;99.90
15617;DHT22;7908;51.688;7.130;2022-12-18T11:35:03;-2.90;99.90
15617;DHT22;7908;51.688;7.130;2022-12-18T11:37:33;-2.80;99.90
15617;DHT22;7908;51.688;7.130;2022-12-18T11:40:14;-2.80;99.90
15617;DHT22;7908;51.688;7.130;2022-12-18T11:42:51;-2.70;99.90
15617;DHT22;7908;51.688;7.130;2022-12-18T11:45:28;-2.60;99.90
15617;DHT22;7908;51.688;7.130;2022-12-18T11:48:02;-2.50;99.90
15617;DHT22;7908;51.688;7.130;2022-12-18T11:50:43;-2.50;99.90
15617;DHT22;7908;51.688;7.130;2022-12-18T11:53:15;-2.40;99.90
15617;DHT22;7908;51.688;7.130;2022-12-18T11:55:55;-2.30;99.90
15617;DHT22;7908;51.688;7.130;2022-12-18T11:58:34;-2.20;99.90
15617;DHT22;7908;51.688;7.130;2022-12-18T12:01:16;-2.20;99.90
15617;DHT22;7908;51.688;7.130;2022-12-18T12:07:02;-2.20;99.90
15617;DHT22;7908;51.688;7.130;2022-12-18T12:09:43;-2.20;99.90
15617;DHT22;7908;51.688;7.130;2022-12-18T12:12:35;-2.10;99.90
15617;DHT22;7908;51.688;7.130;2022-12-18T12:15:25;-2.10;99.90
15617;DHT22;7908;51.688;7.130;2022-12-18T12:18:05;-2.00;99.90
15617;DHT22;7908;51.688;7.130;2022-12-18T12:20:47;-1.90;99.90
15617;DHT22;7908;51.688;7.130;2022-12-18T12:23:29;-1.90;99.90
15617;DHT22;7908;51.688;7.130;2022-12-18T12:26:07;-1.80;99.90
15617;DHT22;7908;51.688;7.130;2022-12-18T12:28:59;-1.80;99.90
15617;DHT22;7908;51.688;7.130;2022-12-18T12:31:58;-1.70;99.90
15617;DHT22;7908;51.688;7.130;2022-12-18T12:34:51;-1.60;99.90
15617;DHT22;7908;51.688;7.130;2022-12-18T12:37:46;-1.60;99.90
15617;DHT22;7908;51.688;7.130;2022-12-18T12:40:23;-1.50;99.90
15617;DHT22;7908;51.688;7.130;2022-12-18T12:43:28;-1.50;99.90
15617;DHT22;7908;51.688;7.130;2022-12-18T12:46:18;-1.40;99.90
15617;DHT22;7908;51.688;7.130;2022-12-18T12:48:56;-1.30;99.90
15617;DHT22;7908;51.688;7.130;2022-12-18T12:51:30;-1.30;99.90
15617;DHT22;7908;51.688;7.130;2022-12-18T12:54:19;-1.30;99.90
15617;DHT22;7908;51.688;7.130;2022-12-18T12:57:01;-1.20;99.90
15617;DHT22;7908;51.688;7.130;2022-12-18T12:59:47;-1.20;99.90
15617;DHT22;7908;51.688;7.130;2022-12-18T13:02:27;-1.10;99.90
15617;DHT22;7908;51.688;7.130;2022-12-18T13:05:16;-1.10;99.90
15617;DHT22;7908;51.688;7.130;2022-12-18T13:07:52;-1.00;99.90
15617;DHT22;7908;51.688;7.130;2022-12-18T13:10:41;-1.00;99.90
15617;DHT22;7908;51.688;7.130;2022-12-18T13:13:20;-1.00;99.90
15617;DHT22;7908;51.688;7.130;2022-12-18T13:16:06;-1.00;99.90
15617;DHT22;7908;51.688;7.130;2022-12-18T13:18:49;-1.00;99.90
15617;DHT22;7908;51.688;7.130;2022-12-18T13:21:28;-1.00;99.90
15617;DHT22;7908;51.688;7.130;2022-12-18T13:24:15;-1.00;99.90
15617;DHT22;7908;51.688;7.130;2022-12-18T13:26:54;-0.90;99.90
15617;DHT22;7908;51.688;7.130;2022-12-18T13:29:45;-1.00;99.90
15617;DHT22;7908;51.688;7.130;2022-12-18T13:32:22;-0.90;99.90
15617;DHT22;7908;51.688;7.130;2022-12-18T13:38:21;-0.90;99.90
15617;DHT22;7908;51.688;7.130;2022-12-18T13:40:56;-0.90;99.90
15617;DHT22;7908;51.688;7.130;2022-12-18T13:43:31;-0.80;99.90
15617;DHT22;7908;51.688;7.130;2022-12-18T13:46:19;-0.80;99.90
15617;DHT22;7908;51.688;7.130;2022-12-18T13:48:53;-0.80;99.90
15617;DHT22;7908;51.688;7.130;2022-12-18T13:51:23;-0.80;99.90
15617;DHT22;7908;51.688;7.130;2022-12-18T13:53:58;-0.80;99.90
15617;DHT22;7908;51.688;7.130;2022-12-18T13:56:31;-0.80;99.90
15617;DHT22;7908;51.688;7.130;2022-12-18T13:59:26;-0.90;99.90
15617;DHT22;7908;51.688;7.130;2022-12-18T14:02:07;-0.90;99.90
15617;DHT22;7908;51.688;7.130;2022-12-18T14:04:37;-0.90;99.90
15617;DHT22;7908;51.688;7.130;2022-12-18T14:07:07;-0.90;99.90
15617;DHT22;7908;51.688;7.130;2022-12-18T14:09:47;-0.90;99.90
15617;DHT22;7908;51.688;7.130;2022-12-18T14:12:22;-0.90;99.90
15617;DHT22;7908;51.688;7.130;2022-12-18T14:15:25;-0.90;99.90
15617;DHT22;7908;51.688;7.130;2022-12-18T14:18:15;-0.80;99.90
15617;DHT22;7908;51.688;7.130;2022-12-18T14:21:00;-0.80;99.90
15617;DHT22;7908;51.688;7.130;2022-12-18T14:23:33;-0.80;99.90
15617;DHT22;7908;51.688;7.130;2022-12-18T14:26:23;-0.80;99.90
15617;DHT22;7908;51.688;7.130;2022-12-18T14:29:17;-0.80;99.90
15617;DHT22;7908;51.688;7.130;2022-12-18T14:32:08;-0.80;99.90
15617;DHT22;7908;51.688;7.130;2022-12-18T14:34:44;-0.80;99.90
15617;DHT22;7908;51.688;7.130;2022-12-18T14:37:15;-0.80;99.90
15617;DHT22;7908;51.688;7.130;2022-12-18T14:39:54;-0.80;99.90
15617;DHT22;7908;51.688;7.130;2022-12-18T14:42:28;-0.80;99.90
15617;DHT22;7908;51.688;7.130;2022-12-18T14:45:42;-0.80;99.90
15617;DHT22;7908;51.688;7.130;2022-12-18T14:48:17;-0.80;99.90
15617;DHT22;7908;51.688;7.130;2022-12-18T14:50:58;-0.80;99.90
15617;DHT22;7908;51.688;7.130;2022-12-18T14:53:34;-0.80;99.90
15617;DHT22;7908;51.688;7.130;2022-12-18T14:56:14;-0.80;99.90
15617;DHT22;7908;51.688;7.130;2022-12-18T14:58:50;-0.80;99.90
15617;DHT22;7908;51.688;7.130;2022-12-18T15:01:31;-0.80;99.90
15617;DHT22;7908;51.688;7.130;2022-12-18T15:04:05;-0.90;99.90
15617;DHT22;7908;51.688;7.130;2022-12-18T15:07:12;-0.90;99.90
15617;DHT22;7908;51.688;7.130;2022-12-18T15:10:09;-0.90;99.90
15617;DHT22;7908;51.688;7.130;2022-12-18T15:12:43;-1.00;99.90
15617;DHT22;7908;51.688;7.130;2022-12-18T15:15:52;-1.00;99.90
15617;DHT22;7908;51.688;7.130;2022-12-18T15:18:44;-1.00;99.90
15617;DHT22;7908;51.688;7.130;2022-12-18T15:21:21;-1.00;99.90
15617;DHT22;7908;51.688;7.130;2022-12-18T15:24:03;-1.10;99.90
15617;DHT22;7908;51.688;7.130;2022-12-18T15:26:37;-1.10;99.90
15617;DHT22;7908;51.688;7.130;2022-12-18T15:29:22;-1.10;99.90
15617;DHT22;7908;51.688;7.130;2022-12-18T15:32:01;-1.10;99.90
15617;DHT22;7908;51.688;7.130;2022-12-18T15:34:34;-1.10;99.90
15617;DHT22;7908;51.688;7.130;2022-12-18T15:37:07;-1.20;99.90
15617;DHT22;7908;51.688;7.130;2022-12-18T15:39:38;-1.20;99.90
15617;DHT22;7908;51.688;7.130;2022-12-18T15:42:13;-1.20;99.90
15617;DHT22;7908;51.688;7.130;2022-12-18T15:45:01;-1.20;99.90
15617;DHT22;7908;51.688;7.130;2022-12-18T15:47:42;-1.20;99.90
15617;DHT22;7908;51.688;7.130;2022-12-18T15:50:14;-1.20;99.90
15617;DHT22;7908;51.688;7.130;2022-12-18T15:52:48;-1.20;99.90
15617;DHT22;7908;51.688;7.130;2022-12-18T15:55:20;-1.20;99.90
15617;DHT22;7908;51.688;7.130;2022-12-18T15:58:27;-1.30;99.90
15617;DHT22;7908;51.688;7.130;2022-12-18T16:00:57;-1.30;99.90
15617;DHT22;7908;51.688;7.130;2022-12-18T16:03:32;-1.30;99.90
15617;DHT22;7908;51.688;7.130;2022-12-18T16:06:01;-1.30;99.90
15617;DHT22;7908;51.688;7.130;2022-12-18T16:08:37;-1.30;99.90
15617;DHT22;7908;51.688;7.130;2022-12-18T16:11:23;-1.40;99.90
15617;DHT22;7908;51.688;7.130;2022-12-18T16:14:15;-1.40;99.90
15617;DHT22;7908;51.688;7.130;2022-12-18T16:16:48;-1.40;99.90
15617;DHT22;7908;51.688;7.130;2022-12-18T16:19:20;-1.40;99.90
15617;DHT22;7908;51.688;7.130;2022-12-18T16:21:52;-1.40;99.90
15617;DHT22;7908;51.688;7.130;2022-12-18T16:24:25;-1.40;99.90
15617;DHT22;7908;51.688;7.130;2022-12-18T16:27:00;-1.40;99.90
15617;DHT22;7908;51.688;7.130;2022-12-18T16:29:35;-1.40;99.90
15617;DHT22;7908;51.688;7.130;2022-12-18T16:32:05;-1.40;99.90